Terminal Aerodrome Forecast
Issued by NWS

Home | Current Version | Previous Version | Text Only | Print | Product List | Glossary Off
Versions: 1 2 3 4 5 6 7 8 9 10 11 12 13 14 15

244
FTUS45 KGGW 201554 AAA
TAFSDY
TAF AMD
KSDY 201554Z 2016/2112 28018KT P6SM BKN130
     FM202100 32018G27KT P6SM BKN060
     FM211100 32010KT P6SM FEW040=

USA.gov is the U.S. government's official web portal to all federal, state and local government web resources and services.